sensor_id;sensor_type;location;lat;lon;timestamp;temperature;humidity
9666;DHT22;4871;52.004;5.924;2023-09-30T00:00:01;14.4;70.7
9666;DHT22;4871;52.004;5.924;2023-09-30T00:01:00;14.4;70.8
9666;DHT22;4871;52.004;5.924;2023-09-30T00:02:00;14.4;70.8
9666;DHT22;4871;52.004;5.924;2023-09-30T00:03:00;14.4;70.8
9666;DHT22;4871;52.004;5.924;2023-09-30T00:04:01;14.4;70.8
9666;DHT22;4871;52.004;5.924;2023-09-30T00:05:00;14.4;70.8
9666;DHT22;4871;52.004;5.924;2023-09-30T00:06:00;14.4;70.9
9666;DHT22;4871;52.004;5.924;2023-09-30T00:07:00;14.4;70.8
9666;DHT22;4871;52.004;5.924;2023-09-30T00:08:00;14.4;70.9
9666;DHT22;4871;52.004;5.924;2023-09-30T00:09:00;14.4;70.8
9666;DHT22;4871;52.004;5.924;2023-09-30T00:10:00;14.4;70.9
9666;DHT22;4871;52.004;5.924;2023-09-30T00:11:00;14.4;71.0
9666;DHT22;4871;52.004;5.924;2023-09-30T00:12:00;14.3;71.0
9666;DHT22;4871;52.004;5.924;2023-09-30T00:13:00;14.3;71.0
9666;DHT22;4871;52.004;5.924;2023-09-30T00:14:00;14.4;70.9
9666;DHT22;4871;52.004;5.924;2023-09-30T00:15:00;14.3;70.9
9666;DHT22;4871;52.004;5.924;2023-09-30T00:16:00;14.4;71.0
9666;DHT22;4871;52.004;5.924;2023-09-30T00:17:00;14.4;70.9
9666;DHT22;4871;52.004;5.924;2023-09-30T00:18:01;14.4;71.0
9666;DHT22;4871;52.004;5.924;2023-09-30T00:19:02;14.4;71.1
9666;DHT22;4871;52.004;5.924;2023-09-30T00:20:00;14.4;71.1
9666;DHT22;4871;52.004;5.924;2023-09-30T00:21:00;14.4;70.9
9666;DHT22;4871;52.004;5.924;2023-09-30T00:22:00;14.3;70.8
9666;DHT22;4871;52.004;5.924;2023-09-30T00:23:00;14.3;71.1
9666;DHT22;4871;52.004;5.924;2023-09-30T00:24:00;14.4;70.9
9666;DHT22;4871;52.004;5.924;2023-09-30T00:25:00;14.4;70.9
9666;DHT22;4871;52.004;5.924;2023-09-30T00:26:01;14.4;70.9
9666;DHT22;4871;52.004;5.924;2023-09-30T00:27:00;14.4;70.9
9666;DHT22;4871;52.004;5.924;2023-09-30T00:28:00;14.3;71.0
9666;DHT22;4871;52.004;5.924;2023-09-30T00:29:00;14.4;70.9
9666;DHT22;4871;52.004;5.924;2023-09-30T00:30:00;14.4;70.9
9666;DHT22;4871;52.004;5.924;2023-09-30T00:31:00;14.4;70.9
9666;DHT22;4871;52.004;5.924;2023-09-30T00:32:00;14.4;70.9
9666;DHT22;4871;52.004;5.924;2023-09-30T00:33:00;14.4;71.0
9666;DHT22;4871;52.004;5.924;2023-09-30T00:34:00;14.4;70.9
9666;DHT22;4871;52.004;5.924;2023-09-30T00:35:01;14.3;71.0
9666;DHT22;4871;52.004;5.924;2023-09-30T00:36:05;14.3;70.9
9666;DHT22;4871;52.004;5.924;2023-09-30T00:37:00;14.4;70.9
9666;DHT22;4871;52.004;5.924;2023-09-30T00:38:00;14.4;70.9
9666;DHT22;4871;52.004;5.924;2023-09-30T00:39:00;14.3;70.9
9666;DHT22;4871;52.004;5.924;2023-09-30T00:40:00;14.3;71.0
9666;DHT22;4871;52.004;5.924;2023-09-30T00:41:00;14.3;71.0
9666;DHT22;4871;52.004;5.924;2023-09-30T00:42:00;14.3;70.9
9666;DHT22;4871;52.004;5.924;2023-09-30T00:43:01;14.3;70.9
9666;DHT22;4871;52.004;5.924;2023-09-30T00:44:00;14.3;71.0
9666;DHT22;4871;52.004;5.924;2023-09-30T00:45:00;14.3;70.9
9666;DHT22;4871;52.004;5.924;2023-09-30T00:46:02;14.3;71.1
9666;DHT22;4871;52.004;5.924;2023-09-30T00:47:00;14.3;71.0
9666;DHT22;4871;52.004;5.924;2023-09-30T00:48:01;14.3;71.1
9666;DHT22;4871;52.004;5.924;2023-09-30T00:49:00;14.3;70.9
9666;DHT22;4871;52.004;5.924;2023-09-30T00:50:00;14.3;70.9
9666;DHT22;4871;52.004;5.924;2023-09-30T00:51:00;14.3;71.0
9666;DHT22;4871;52.004;5.924;2023-09-30T00:52:02;14.3;70.9
9666;DHT22;4871;52.004;5.924;2023-09-30T00:53:00;14.3;70.9
9666;DHT22;4871;52.004;5.924;2023-09-30T00:54:01;14.3;70.9
9666;DHT22;4871;52.004;5.924;2023-09-30T00:55:00;14.3;71.0
9666;DHT22;4871;52.004;5.924;2023-09-30T00:56:00;14.3;71.0
9666;DHT22;4871;52.004;5.924;2023-09-30T00:57:01;14.3;71.0
9666;DHT22;4871;52.004;5.924;2023-09-30T00:58:00;14.2;71.0
9666;DHT22;4871;52.004;5.924;2023-09-30T00:59:00;14.3;71.0
9666;DHT22;4871;52.004;5.924;2023-09-30T01:00:01;14.2;70.9
9666;DHT22;4871;52.004;5.924;2023-09-30T01:01:01;14.2;70.9
9666;DHT22;4871;52.004;5.924;2023-09-30T01:02:01;14.2;71.2
9666;DHT22;4871;52.004;5.924;2023-09-30T01:03:04;14.2;71.1
9666;DHT22;4871;52.004;5.924;2023-09-30T01:04:00;14.2;71.0
9666;DHT22;4871;52.004;5.924;2023-09-30T01:05:01;14.2;71.1
9666;DHT22;4871;52.004;5.924;2023-09-30T01:06:00;14.2;71.1
9666;DHT22;4871;52.004;5.924;2023-09-30T01:07:00;14.2;71.1
9666;DHT22;4871;52.004;5.924;2023-09-30T01:08:01;14.2;71.0
9666;DHT22;4871;52.004;5.924;2023-09-30T01:09:00;14.2;70.9
9666;DHT22;4871;52.004;5.924;2023-09-30T01:10:00;14.2;71.2
9666;DHT22;4871;52.004;5.924;2023-09-30T01:11:01;14.2;71.1
9666;DHT22;4871;52.004;5.924;2023-09-30T01:12:00;14.2;71.0
9666;DHT22;4871;52.004;5.924;2023-09-30T01:13:00;14.2;71.0
9666;DHT22;4871;52.004;5.924;2023-09-30T01:14:00;14.2;70.9
9666;DHT22;4871;52.004;5.924;2023-09-30T01:15:00;14.2;70.9
9666;DHT22;4871;52.004;5.924;2023-09-30T01:16:03;14.2;71.0
9666;DHT22;4871;52.004;5.924;2023-09-30T01:17:01;14.2;70.9
9666;DHT22;4871;52.004;5.924;2023-09-30T01:18:00;14.2;71.0
9666;DHT22;4871;52.004;5.924;2023-09-30T01:19:00;14.1;71.2
9666;DHT22;4871;52.004;5.924;2023-09-30T01:20:00;14.1;71.1
9666;DHT22;4871;52.004;5.924;2023-09-30T01:21:02;14.1;71.1
9666;DHT22;4871;52.004;5.924;2023-09-30T01:22:00;14.1;71.2
9666;DHT22;4871;52.004;5.924;2023-09-30T01:23:02;14.1;71.1
9666;DHT22;4871;52.004;5.924;2023-09-30T01:24:00;14.1;71.0
9666;DHT22;4871;52.004;5.924;2023-09-30T01:25:00;14.1;71.2
9666;DHT22;4871;52.004;5.924;2023-09-30T01:26:01;14.1;71.2
9666;DHT22;4871;52.004;5.924;2023-09-30T01:27:00;14.1;71.0
9666;DHT22;4871;52.004;5.924;2023-09-30T01:28:08;14.1;71.1
9666;DHT22;4871;52.004;5.924;2023-09-30T01:29:00;14.1;71.0
9666;DHT22;4871;52.004;5.924;2023-09-30T01:30:00;14.1;71.1
9666;DHT22;4871;52.004;5.924;2023-09-30T01:31:00;14.1;71.1
9666;DHT22;4871;52.004;5.924;2023-09-30T01:32:00;14.1;71.0
9666;DHT22;4871;52.004;5.924;2023-09-30T01:33:00;14.1;71.0
9666;DHT22;4871;52.004;5.924;2023-09-30T01:34:00;14.1;71.0
9666;DHT22;4871;52.004;5.924;2023-09-30T01:35:00;14.1;71.0
9666;DHT22;4871;52.004;5.924;2023-09-30T01:36:00;14.1;71.2
9666;DHT22;4871;52.004;5.924;2023-09-30T01:37:00;14.0;71.1
9666;DHT22;4871;52.004;5.924;2023-09-30T01:38:00;14.1;71.1
9666;DHT22;4871;52.004;5.924;2023-09-30T01:39:02;14.0;70.9
9666;DHT22;4871;52.004;5.924;2023-09-30T01:40:00;14.0;71.1
9666;DHT22;4871;52.004;5.924;2023-09-30T01:41:00;14.0;71.1
9666;DHT22;4871;52.004;5.924;2023-09-30T01:42:00;14.0;71.1
9666;DHT22;4871;52.004;5.924;2023-09-30T01:43:00;14.0;71.0
9666;DHT22;4871;52.004;5.924;2023-09-30T01:44:00;14.0;71.3
9666;DHT22;4871;52.004;5.924;2023-09-30T01:45:00;14.0;71.0
9666;DHT22;4871;52.004;5.924;2023-09-30T01:46:00;14.0;71.3
9666;DHT22;4871;52.004;5.924;2023-09-30T01:47:00;14.0;71.1
9666;DHT22;4871;52.004;5.924;2023-09-30T01:48:00;14.0;71.3
9666;DHT22;4871;52.004;5.924;2023-09-30T01:49:00;14.0;71.1
9666;DHT22;4871;52.004;5.924;2023-09-30T01:50:00;13.9;71.3
9666;DHT22;4871;52.004;5.924;2023-09-30T01:51:01;14.0;71.3
9666;DHT22;4871;52.004;5.924;2023-09-30T01:52:00;14.0;71.2
9666;DHT22;4871;52.004;5.924;2023-09-30T01:53:00;13.9;71.2
9666;DHT22;4871;52.004;5.924;2023-09-30T01:54:00;14.0;71.1
9666;DHT22;4871;52.004;5.924;2023-09-30T01:55:00;13.9;71.2
9666;DHT22;4871;52.004;5.924;2023-09-30T01:56:00;13.9;71.3
9666;DHT22;4871;52.004;5.924;2023-09-30T01:57:00;13.9;71.2
9666;DHT22;4871;52.004;5.924;2023-09-30T01:58:00;13.9;71.0
9666;DHT22;4871;52.004;5.924;2023-09-30T01:59:00;13.9;71.2
9666;DHT22;4871;52.004;5.924;2023-09-30T02:00:00;13.9;71.2
9666;DHT22;4871;52.004;5.924;2023-09-30T02:01:02;13.9;71.2
9666;DHT22;4871;52.004;5.924;2023-09-30T02:02:00;14.0;71.1
9666;DHT22;4871;52.004;5.924;2023-09-30T02:03:00;13.9;71.1
9666;DHT22;4871;52.004;5.924;2023-09-30T02:04:00;14.0;71.1
9666;DHT22;4871;52.004;5.924;2023-09-30T02:05:00;13.9;71.1
9666;DHT22;4871;52.004;5.924;2023-09-30T02:06:00;13.9;71.2
9666;DHT22;4871;52.004;5.924;2023-09-30T02:07:00;13.9;71.2
9666;DHT22;4871;52.004;5.924;2023-09-30T02:08:04;14.0;70.9
9666;DHT22;4871;52.004;5.924;2023-09-30T02:09:00;13.9;71.0
9666;DHT22;4871;52.004;5.924;2023-09-30T02:10:01;13.9;71.2
9666;DHT22;4871;52.004;5.924;2023-09-30T02:11:00;13.9;71.2
9666;DHT22;4871;52.004;5.924;2023-09-30T02:12:01;13.9;71.2
9666;DHT22;4871;52.004;5.924;2023-09-30T02:13:00;13.9;71.2
9666;DHT22;4871;52.004;5.924;2023-09-30T02:14:01;13.9;71.3
9666;DHT22;4871;52.004;5.924;2023-09-30T02:15:02;13.9;71.3
9666;DHT22;4871;52.004;5.924;2023-09-30T02:16:00;13.9;71.2
9666;DHT22;4871;52.004;5.924;2023-09-30T02:17:00;13.9;71.2
9666;DHT22;4871;52.004;5.924;2023-09-30T02:18:00;13.9;71.3
9666;DHT22;4871;52.004;5.924;2023-09-30T02:19:00;13.9;71.3
9666;DHT22;4871;52.004;5.924;2023-09-30T02:20:02;13.8;71.3
9666;DHT22;4871;52.004;5.924;2023-09-30T02:21:00;13.9;71.3
9666;DHT22;4871;52.004;5.924;2023-09-30T02:22:00;13.8;71.4
9666;DHT22;4871;52.004;5.924;2023-09-30T02:23:02;13.8;71.5
9666;DHT22;4871;52.004;5.924;2023-09-30T02:24:00;13.8;71.4
9666;DHT22;4871;52.004;5.924;2023-09-30T02:25:00;13.8;71.4
9666;DHT22;4871;52.004;5.924;2023-09-30T02:26:00;13.8;71.4
9666;DHT22;4871;52.004;5.924;2023-09-30T02:27:00;13.8;71.3
9666;DHT22;4871;52.004;5.924;2023-09-30T02:28:00;13.8;71.4
9666;DHT22;4871;52.004;5.924;2023-09-30T02:29:00;13.8;71.3
9666;DHT22;4871;52.004;5.924;2023-09-30T02:30:00;13.8;71.1
9666;DHT22;4871;52.004;5.924;2023-09-30T02:31:00;13.8;71.1
9666;DHT22;4871;52.004;5.924;2023-09-30T02:32:00;13.8;71.4
9666;DHT22;4871;52.004;5.924;2023-09-30T02:33:00;13.8;71.3
9666;DHT22;4871;52.004;5.924;2023-09-30T02:34:02;13.8;71.2
9666;DHT22;4871;52.004;5.924;2023-09-30T02:35:00;13.8;71.1
9666;DHT22;4871;52.004;5.924;2023-09-30T02:36:00;13.8;71.2
9666;DHT22;4871;52.004;5.924;2023-09-30T02:37:00;13.8;71.2
9666;DHT22;4871;52.004;5.924;2023-09-30T02:38:00;13.8;71.2
9666;DHT22;4871;52.004;5.924;2023-09-30T02:39:01;13.8;71.1
9666;DHT22;4871;52.004;5.924;2023-09-30T02:40:00;13.8;71.2
9666;DHT22;4871;52.004;5.924;2023-09-30T02:41:02;13.7;71.2
9666;DHT22;4871;52.004;5.924;2023-09-30T02:42:01;13.7;71.4
9666;DHT22;4871;52.004;5.924;2023-09-30T02:43:00;13.8;71.3
9666;DHT22;4871;52.004;5.924;2023-09-30T02:44:00;13.8;71.2
9666;DHT22;4871;52.004;5.924;2023-09-30T02:45:01;13.8;71.2
9666;DHT22;4871;52.004;5.924;2023-09-30T02:46:00;13.7;71.4
9666;DHT22;4871;52.004;5.924;2023-09-30T02:47:00;13.8;71.3
9666;DHT22;4871;52.004;5.924;2023-09-30T02:48:00;13.7;71.4
9666;DHT22;4871;52.004;5.924;2023-09-30T02:49:00;13.8;71.3
9666;DHT22;4871;52.004;5.924;2023-09-30T02:50:01;13.8;71.2
9666;DHT22;4871;52.004;5.924;2023-09-30T02:51:00;13.8;71.2
9666;DHT22;4871;52.004;5.924;2023-09-30T02:52:00;13.8;71.3
9666;DHT22;4871;52.004;5.924;2023-09-30T02:53:00;13.8;71.2
9666;DHT22;4871;52.004;5.924;2023-09-30T02:54:00;13.8;71.1
9666;DHT22;4871;52.004;5.924;2023-09-30T02:55:00;13.8;71.3
9666;DHT22;4871;52.004;5.924;2023-09-30T02:56:00;13.8;71.2
9666;DHT22;4871;52.004;5.924;2023-09-30T02:57:00;13.8;71.3
9666;DHT22;4871;52.004;5.924;2023-09-30T02:58:00;13.8;71.2
9666;DHT22;4871;52.004;5.924;2023-09-30T02:59:01;13.8;71.2
9666;DHT22;4871;52.004;5.924;2023-09-30T03:00:00;13.8;71.2
9666;DHT22;4871;52.004;5.924;2023-09-30T03:01:00;13.8;71.2
9666;DHT22;4871;52.004;5.924;2023-09-30T03:02:00;13.8;71.1
9666;DHT22;4871;52.004;5.924;2023-09-30T03:03:01;13.8;71.2
9666;DHT22;4871;52.004;5.924;2023-09-30T03:04:00;13.8;71.2
9666;DHT22;4871;52.004;5.924;2023-09-30T03:05:03;13.8;71.2
9666;DHT22;4871;52.004;5.924;2023-09-30T03:06:00;13.8;71.3
9666;DHT22;4871;52.004;5.924;2023-09-30T03:07:00;13.8;71.3
9666;DHT22;4871;52.004;5.924;2023-09-30T03:08:01;13.9;71.2
9666;DHT22;4871;52.004;5.924;2023-09-30T03:09:02;13.8;71.2
9666;DHT22;4871;52.004;5.924;2023-09-30T03:10:05;13.8;71.1
9666;DHT22;4871;52.004;5.924;2023-09-30T03:11:02;13.8;71.2
9666;DHT22;4871;52.004;5.924;2023-09-30T03:12:00;13.8;71.2
9666;DHT22;4871;52.004;5.924;2023-09-30T03:13:01;13.9;71.2
9666;DHT22;4871;52.004;5.924;2023-09-30T03:14:00;13.8;71.1
9666;DHT22;4871;52.004;5.924;2023-09-30T03:15:04;13.8;71.2
9666;DHT22;4871;52.004;5.924;2023-09-30T03:16:01;13.8;71.2
9666;DHT22;4871;52.004;5.924;2023-09-30T03:17:00;13.8;71.2
9666;DHT22;4871;52.004;5.924;2023-09-30T03:18:00;13.8;71.3
9666;DHT22;4871;52.004;5.924;2023-09-30T03:19:00;13.8;71.3
9666;DHT22;4871;52.004;5.924;2023-09-30T03:20:01;13.9;71.2
9666;DHT22;4871;52.004;5.924;2023-09-30T03:21:01;13.8;71.2
9666;DHT22;4871;52.004;5.924;2023-09-30T03:22:04;13.9;71.1
9666;DHT22;4871;52.004;5.924;2023-09-30T03:23:04;13.8;71.3
9666;DHT22;4871;52.004;5.924;2023-09-30T03:24:00;13.8;71.4
9666;DHT22;4871;52.004;5.924;2023-09-30T03:25:00;13.8;71.3
9666;DHT22;4871;52.004;5.924;2023-09-30T03:26:00;13.9;71.1
9666;DHT22;4871;52.004;5.924;2023-09-30T03:27:00;13.9;71.1
9666;DHT22;4871;52.004;5.924;2023-09-30T03:28:00;13.9;71.2
9666;DHT22;4871;52.004;5.924;2023-09-30T03:29:00;13.8;71.3
9666;DHT22;4871;52.004;5.924;2023-09-30T03:30:02;13.9;71.2
9666;DHT22;4871;52.004;5.924;2023-09-30T03:31:00;13.9;71.3
9666;DHT22;4871;52.004;5.924;2023-09-30T03:32:00;13.9;71.2
9666;DHT22;4871;52.004;5.924;2023-09-30T03:33:01;13.9;71.2
9666;DHT22;4871;52.004;5.924;2023-09-30T03:34:00;13.8;71.3
9666;DHT22;4871;52.004;5.924;2023-09-30T03:35:00;13.9;71.2
9666;DHT22;4871;52.004;5.924;2023-09-30T03:36:00;13.9;71.2
9666;DHT22;4871;52.004;5.924;2023-09-30T03:37:00;13.9;71.2
9666;DHT22;4871;52.004;5.924;2023-09-30T03:38:02;13.9;71.1
9666;DHT22;4871;52.004;5.924;2023-09-30T03:39:00;13.9;71.3
9666;DHT22;4871;52.004;5.924;2023-09-30T03:40:01;13.9;71.3
9666;DHT22;4871;52.004;5.924;2023-09-30T03:41:00;13.8;71.3
9666;DHT22;4871;52.004;5.924;2023-09-30T03:42:00;13.9;71.3
9666;DHT22;4871;52.004;5.924;2023-09-30T03:43:00;13.9;71.2
9666;DHT22;4871;52.004;5.924;2023-09-30T03:44:00;13.8;71.2
9666;DHT22;4871;52.004;5.924;2023-09-30T03:45:00;13.8;71.4
9666;DHT22;4871;52.004;5.924;2023-09-30T03:46:00;13.8;71.2
9666;DHT22;4871;52.004;5.924;2023-09-30T03:47:00;13.9;71.2
9666;DHT22;4871;52.004;5.924;2023-09-30T03:48:02;13.9;71.3
9666;DHT22;4871;52.004;5.924;2023-09-30T03:49:00;13.9;71.2
9666;DHT22;4871;52.004;5.924;2023-09-30T03:50:00;13.9;71.3
9666;DHT22;4871;52.004;5.924;2023-09-30T03:51:07;13.8;71.6
9666;DHT22;4871;52.004;5.924;2023-09-30T03:52:00;13.8;71.4
9666;DHT22;4871;52.004;5.924;2023-09-30T03:53:01;13.8;71.8
9666;DHT22;4871;52.004;5.924;2023-09-30T03:54:03;13.9;71.4
9666;DHT22;4871;52.004;5.924;2023-09-30T03:55:03;13.8;71.4
9666;DHT22;4871;52.004;5.924;2023-09-30T03:56:00;13.9;71.3
9666;DHT22;4871;52.004;5.924;2023-09-30T03:57:00;13.8;71.4
9666;DHT22;4871;52.004;5.924;2023-09-30T03:58:00;13.8;71.3
9666;DHT22;4871;52.004;5.924;2023-09-30T03:59:00;13.8;71.3
9666;DHT22;4871;52.004;5.924;2023-09-30T04:00:00;13.8;71.3
9666;DHT22;4871;52.004;5.924;2023-09-30T04:01:01;13.8;71.2
9666;DHT22;4871;52.004;5.924;2023-09-30T04:02:01;13.8;71.3
9666;DHT22;4871;52.004;5.924;2023-09-30T04:03:00;13.9;71.2
9666;DHT22;4871;52.004;5.924;2023-09-30T04:04:00;13.9;71.1
9666;DHT22;4871;52.004;5.924;2023-09-30T04:05:04;13.9;71.2
9666;DHT22;4871;52.004;5.924;2023-09-30T04:06:01;13.8;71.2
9666;DHT22;4871;52.004;5.924;2023-09-30T04:07:00;13.8;71.3
9666;DHT22;4871;52.004;5.924;2023-09-30T04:08:00;13.9;71.2
9666;DHT22;4871;52.004;5.924;2023-09-30T04:09:01;13.9;71.2
9666;DHT22;4871;52.004;5.924;2023-09-30T04:10:01;13.8;71.2
9666;DHT22;4871;52.004;5.924;2023-09-30T04:11:01;13.9;71.3
9666;DHT22;4871;52.004;5.924;2023-09-30T04:12:01;13.9;71.2
9666;DHT22;4871;52.004;5.924;2023-09-30T04:13:00;13.8;71.2
9666;DHT22;4871;52.004;5.924;2023-09-30T04:14:00;13.8;71.3
9666;DHT22;4871;52.004;5.924;2023-09-30T04:15:00;13.9;71.3
9666;DHT22;4871;52.004;5.924;2023-09-30T04:16:00;13.9;71.2
9666;DHT22;4871;52.004;5.924;2023-09-30T04:17:00;13.9;71.1
9666;DHT22;4871;52.004;5.924;2023-09-30T04:18:00;13.9;71.2
9666;DHT22;4871;52.004;5.924;2023-09-30T04:19:00;13.9;71.1
9666;DHT22;4871;52.004;5.924;2023-09-30T04:20:00;13.9;71.2
9666;DHT22;4871;52.004;5.924;2023-09-30T04:21:00;13.9;71.3
9666;DHT22;4871;52.004;5.924;2023-09-30T04:22:00;13.9;71.3
9666;DHT22;4871;52.004;5.924;2023-09-30T04:23:02;13.8;71.2
9666;DHT22;4871;52.004;5.924;2023-09-30T04:24:00;13.9;71.3
9666;DHT22;4871;52.004;5.924;2023-09-30T04:25:00;13.9;71.2
9666;DHT22;4871;52.004;5.924;2023-09-30T04:26:00;13.8;71.2
9666;DHT22;4871;52.004;5.924;2023-09-30T04:27:03;13.8;71.4
9666;DHT22;4871;52.004;5.924;2023-09-30T04:28:02;13.8;71.3
9666;DHT22;4871;52.004;5.924;2023-09-30T04:29:01;13.8;71.4
9666;DHT22;4871;52.004;5.924;2023-09-30T04:30:00;13.8;71.3
9666;DHT22;4871;52.004;5.924;2023-09-30T04:31:00;13.8;71.3
9666;DHT22;4871;52.004;5.924;2023-09-30T04:32:00;13.9;71.3
9666;DHT22;4871;52.004;5.924;2023-09-30T04:33:01;13.8;71.3
9666;DHT22;4871;52.004;5.924;2023-09-30T04:34:00;13.8;71.3
9666;DHT22;4871;52.004;5.924;2023-09-30T04:35:00;13.8;71.3
9666;DHT22;4871;52.004;5.924;2023-09-30T04:36:00;13.8;71.2
9666;DHT22;4871;52.004;5.924;2023-09-30T04:37:00;13.8;71.2
9666;DHT22;4871;52.004;5.924;2023-09-30T04:38:01;13.9;71.3
9666;DHT22;4871;52.004;5.924;2023-09-30T04:39:01;13.8;71.3
9666;DHT22;4871;52.004;5.924;2023-09-30T04:40:00;13.8;71.3
9666;DHT22;4871;52.004;5.924;2023-09-30T04:41:00;13.8;71.4
9666;DHT22;4871;52.004;5.924;2023-09-30T04:42:01;13.8;71.4
9666;DHT22;4871;52.004;5.924;2023-09-30T04:43:00;13.8;71.4
9666;DHT22;4871;52.004;5.924;2023-09-30T04:44:00;13.8;71.4
9666;DHT22;4871;52.004;5.924;2023-09-30T04:45:00;13.8;71.4
9666;DHT22;4871;52.004;5.924;2023-09-30T04:46:01;13.9;71.3
9666;DHT22;4871;52.004;5.924;2023-09-30T04:47:00;13.8;71.4
9666;DHT22;4871;52.004;5.924;2023-09-30T04:48:02;13.8;71.3
9666;DHT22;4871;52.004;5.924;2023-09-30T04:49:00;13.8;71.4
9666;DHT22;4871;52.004;5.924;2023-09-30T04:50:05;13.8;71.5
9666;DHT22;4871;52.004;5.924;2023-09-30T04:51:00;13.8;71.3
9666;DHT22;4871;52.004;5.924;2023-09-30T04:52:00;13.8;71.4
9666;DHT22;4871;52.004;5.924;2023-09-30T04:53:00;13.8;71.4
9666;DHT22;4871;52.004;5.924;2023-09-30T04:54:02;13.8;71.3
9666;DHT22;4871;52.004;5.924;2023-09-30T04:55:00;13.8;71.3
9666;DHT22;4871;52.004;5.924;2023-09-30T04:56:01;13.8;71.4
9666;DHT22;4871;52.004;5.924;2023-09-30T04:57:00;13.8;71.3
9666;DHT22;4871;52.004;5.924;2023-09-30T04:58:00;13.8;71.3
9666;DHT22;4871;52.004;5.924;2023-09-30T04:59:01;13.8;71.3
9666;DHT22;4871;52.004;5.924;2023-09-30T05:00:00;13.8;71.2
9666;DHT22;4871;52.004;5.924;2023-09-30T05:01:00;13.8;71.3
9666;DHT22;4871;52.004;5.924;2023-09-30T05:02:00;13.8;71.4
9666;DHT22;4871;52.004;5.924;2023-09-30T05:03:01;13.8;71.4
9666;DHT22;4871;52.004;5.924;2023-09-30T05:04:00;13.8;71.4
9666;DHT22;4871;52.004;5.924;2023-09-30T05:05:00;13.8;71.4
9666;DHT22;4871;52.004;5.924;2023-09-30T05:06:00;13.8;71.4
9666;DHT22;4871;52.004;5.924;2023-09-30T05:07:00;13.8;71.3
9666;DHT22;4871;52.004;5.924;2023-09-30T05:08:00;13.8;71.4
9666;DHT22;4871;52.004;5.924;2023-09-30T05:09:00;13.8;71.3
9666;DHT22;4871;52.004;5.924;2023-09-30T05:10:00;13.8;71.4
9666;DHT22;4871;52.004;5.924;2023-09-30T05:11:00;13.8;71.3
9666;DHT22;4871;52.004;5.924;2023-09-30T05:12:00;13.8;71.3
9666;DHT22;4871;52.004;5.924;2023-09-30T05:13:00;13.8;71.4
9666;DHT22;4871;52.004;5.924;2023-09-30T05:14:00;13.8;71.3
9666;DHT22;4871;52.004;5.924;2023-09-30T05:15:00;13.8;71.3
9666;DHT22;4871;52.004;5.924;2023-09-30T05:16:00;13.8;71.4
9666;DHT22;4871;52.004;5.924;2023-09-30T05:17:00;13.8;71.4
9666;DHT22;4871;52.004;5.924;2023-09-30T05:18:00;13.8;71.4
9666;DHT22;4871;52.004;5.924;2023-09-30T05:19:00;13.8;71.4
9666;DHT22;4871;52.004;5.924;2023-09-30T05:20:01;13.8;71.4
9666;DHT22;4871;52.004;5.924;2023-09-30T05:21:00;13.8;71.4
9666;DHT22;4871;52.004;5.924;2023-09-30T05:22:01;13.8;71.4
9666;DHT22;4871;52.004;5.924;2023-09-30T05:23:00;13.8;71.4
9666;DHT22;4871;52.004;5.924;2023-09-30T05:24:00;13.8;71.5
9666;DHT22;4871;52.004;5.924;2023-09-30T05:25:00;13.8;71.5
9666;DHT22;4871;52.004;5.924;2023-09-30T05:26:00;13.8;71.6
9666;DHT22;4871;52.004;5.924;2023-09-30T05:27:00;13.8;71.5
9666;DHT22;4871;52.004;5.924;2023-09-30T05:28:00;13.8;71.2
9666;DHT22;4871;52.004;5.924;2023-09-30T05:29:00;13.8;72.1
9666;DHT22;4871;52.004;5.924;2023-09-30T05:30:00;13.8;71.6
9666;DHT22;4871;52.004;5.924;2023-09-30T05:31:01;13.9;71.3
9666;DHT22;4871;52.004;5.924;2023-09-30T05:32:00;13.8;71.4
9666;DHT22;4871;52.004;5.924;2023-09-30T05:33:00;13.8;71.4
9666;DHT22;4871;52.004;5.924;2023-09-30T05:34:03;13.8;71.4
9666;DHT22;4871;52.004;5.924;2023-09-30T05:35:03;13.8;71.4
9666;DHT22;4871;52.004;5.924;2023-09-30T05:36:03;13.8;71.4
9666;DHT22;4871;52.004;5.924;2023-09-30T05:37:00;13.8;71.3
9666;DHT22;4871;52.004;5.924;2023-09-30T05:38:00;13.8;71.5
9666;DHT22;4871;52.004;5.924;2023-09-30T05:39:00;13.8;71.5
9666;DHT22;4871;52.004;5.924;2023-09-30T05:40:00;13.8;71.4
9666;DHT22;4871;52.004;5.924;2023-09-30T05:41:01;13.8;71.4
9666;DHT22;4871;52.004;5.924;2023-09-30T05:42:00;13.8;71.3
9666;DHT22;4871;52.004;5.924;2023-09-30T05:43:00;13.8;71.4
9666;DHT22;4871;52.004;5.924;2023-09-30T05:44:00;13.8;71.5
9666;DHT22;4871;52.004;5.924;2023-09-30T05:45:00;13.8;71.3
9666;DHT22;4871;52.004;5.924;2023-09-30T05:46:00;13.8;71.4
9666;DHT22;4871;52.004;5.924;2023-09-30T05:47:00;13.8;71.5
9666;DHT22;4871;52.004;5.924;2023-09-30T05:48:03;13.8;71.6
9666;DHT22;4871;52.004;5.924;2023-09-30T05:49:00;13.8;71.3
9666;DHT22;4871;52.004;5.924;2023-09-30T05:50:00;13.8;71.4
9666;DHT22;4871;52.004;5.924;2023-09-30T05:51:00;13.8;71.4
9666;DHT22;4871;52.004;5.924;2023-09-30T05:52:00;13.8;71.4
9666;DHT22;4871;52.004;5.924;2023-09-30T05:53:00;13.8;71.4
9666;DHT22;4871;52.004;5.924;2023-09-30T05:54:00;13.8;71.4
9666;DHT22;4871;52.004;5.924;2023-09-30T05:55:02;13.8;71.4
9666;DHT22;4871;52.004;5.924;2023-09-30T05:56:00;13.8;71.5
9666;DHT22;4871;52.004;5.924;2023-09-30T05:57:00;13.8;71.5
9666;DHT22;4871;52.004;5.924;2023-09-30T05:58:01;13.7;71.6
9666;DHT22;4871;52.004;5.924;2023-09-30T05:59:00;13.8;71.5
9666;DHT22;4871;52.004;5.924;2023-09-30T06:00:00;13.8;71.5
9666;DHT22;4871;52.004;5.924;2023-09-30T06:01:00;13.7;71.5
9666;DHT22;4871;52.004;5.924;2023-09-30T06:02:00;13.8;71.5
9666;DHT22;4871;52.004;5.924;2023-09-30T06:03:00;13.8;71.5
9666;DHT22;4871;52.004;5.924;2023-09-30T06:04:00;13.8;71.5
9666;DHT22;4871;52.004;5.924;2023-09-30T06:05:01;13.7;71.5
9666;DHT22;4871;52.004;5.924;2023-09-30T06:06:00;13.7;71.8
9666;DHT22;4871;52.004;5.924;2023-09-30T06:07:00;13.7;71.7
9666;DHT22;4871;52.004;5.924;2023-09-30T06:08:04;13.8;71.5
9666;DHT22;4871;52.004;5.924;2023-09-30T06:09:00;13.8;71.5
9666;DHT22;4871;52.004;5.924;2023-09-30T06:10:03;13.8;71.3
9666;DHT22;4871;52.004;5.924;2023-09-30T06:11:00;13.8;71.5
9666;DHT22;4871;52.004;5.924;2023-09-30T06:12:03;13.8;71.6
9666;DHT22;4871;52.004;5.924;2023-09-30T06:13:00;13.8;71.5
9666;DHT22;4871;52.004;5.924;2023-09-30T06:14:01;13.8;71.6
9666;DHT22;4871;52.004;5.924;2023-09-30T06:15:01;13.8;71.5
9666;DHT22;4871;52.004;5.924;2023-09-30T06:16:01;13.8;71.4
9666;DHT22;4871;52.004;5.924;2023-09-30T06:17:00;13.8;71.4
9666;DHT22;4871;52.004;5.924;2023-09-30T06:18:00;13.8;71.5
9666;DHT22;4871;52.004;5.924;2023-09-30T06:19:00;13.8;71.4
9666;DHT22;4871;52.004;5.924;2023-09-30T06:20:09;13.8;71.3
9666;DHT22;4871;52.004;5.924;2023-09-30T06:21:00;13.8;71.3
9666;DHT22;4871;52.004;5.924;2023-09-30T06:22:00;13.9;71.2
9666;DHT22;4871;52.004;5.924;2023-09-30T06:23:01;13.8;71.2
9666;DHT22;4871;52.004;5.924;2023-09-30T06:24:00;13.9;71.2
9666;DHT22;4871;52.004;5.924;2023-09-30T06:25:00;13.9;71.3
9666;DHT22;4871;52.004;5.924;2023-09-30T06:26:03;13.9;71.3
9666;DHT22;4871;52.004;5.924;2023-09-30T06:27:00;13.9;71.2
9666;DHT22;4871;52.004;5.924;2023-09-30T06:28:00;13.9;71.2
9666;DHT22;4871;52.004;5.924;2023-09-30T06:29:00;13.9;71.2
9666;DHT22;4871;52.004;5.924;2023-09-30T06:30:00;13.9;71.1
9666;DHT22;4871;52.004;5.924;2023-09-30T06:31:00;13.9;71.1
9666;DHT22;4871;52.004;5.924;2023-09-30T06:32:00;13.9;71.0
9666;DHT22;4871;52.004;5.924;2023-09-30T06:33:00;13.9;71.0
9666;DHT22;4871;52.004;5.924;2023-09-30T06:34:00;14.0;71.2
9666;DHT22;4871;52.004;5.924;2023-09-30T06:35:01;14.0;71.0
9666;DHT22;4871;52.004;5.924;2023-09-30T06:36:02;14.0;71.0
9666;DHT22;4871;52.004;5.924;2023-09-30T06:37:00;14.0;71.0
9666;DHT22;4871;52.004;5.924;2023-09-30T06:38:01;14.1;70.8
9666;DHT22;4871;52.004;5.924;2023-09-30T06:39:02;14.1;70.7
9666;DHT22;4871;52.004;5.924;2023-09-30T06:40:03;14.1;70.7
9666;DHT22;4871;52.004;5.924;2023-09-30T06:41:01;14.1;70.8
9666;DHT22;4871;52.004;5.924;2023-09-30T06:42:00;14.1;70.7
9666;DHT22;4871;52.004;5.924;2023-09-30T06:43:01;14.2;70.6
9666;DHT22;4871;52.004;5.924;2023-09-30T06:44:00;14.2;70.5